createdAt,value
2019-03-18T00:02:07.944Z,3.23
2019-03-18T00:04:35.994Z,2.80
2019-03-18T00:07:04.098Z,3.87
2019-03-18T00:09:33.252Z,3.47
2019-03-18T00:12:02.438Z,3.27
2019-03-18T00:14:30.459Z,3.10
2019-03-18T00:16:58.496Z,2.90
2019-03-18T00:19:26.567Z,2.77
2019-03-18T00:21:54.588Z,3.07
2019-03-18T00:24:22.608Z,2.70
2019-03-18T00:26:51.777Z,3.10
2019-03-18T00:29:20.010Z,2.90
2019-03-18T00:31:48.073Z,3.30
2019-03-18T00:34:16.159Z,2.60
2019-03-18T00:36:45.307Z,2.97
2019-03-18T00:39:13.516Z,3.23
2019-03-18T00:41:41.879Z,2.90
2019-03-18T00:44:09.908Z,2.90
2019-03-18T00:46:38.967Z,3.10
2019-03-18T00:49:07.013Z,3.30
2019-03-18T00:51:35.084Z,3.10
2019-03-18T00:54:03.642Z,2.83
2019-03-18T00:56:31.777Z,3.13
2019-03-18T00:58:59.955Z,3.07
2019-03-18T01:01:28.171Z,2.97
2019-03-18T01:03:56.233Z,3.53
2019-03-18T01:06:24.542Z,2.93
2019-03-18T01:08:52.679Z,3.00
2019-03-18T01:11:21.942Z,2.83
2019-03-18T01:13:50.004Z,2.90
2019-03-18T01:16:18.062Z,3.40
2019-03-18T01:18:46.141Z,2.93
2019-03-18T01:21:14.234Z,3.23
2019-03-18T01:23:42.398Z,3.10
2019-03-18T01:26:10.518Z,2.87
2019-03-18T01:28:38.574Z,3.50
2019-03-18T01:31:06.615Z,2.93
2019-03-18T01:33:34.775Z,2.77
2019-03-18T01:36:02.860Z,3.27
2019-03-18T01:38:31.048Z,2.77
2019-03-18T01:40:59.546Z,2.90
2019-03-18T01:43:27.840Z,2.70
2019-03-18T01:45:55.882Z,3.10
2019-03-18T01:48:24.255Z,3.27
2019-03-18T01:50:52.317Z,2.77
2019-03-18T01:53:20.550Z,3.47
2019-03-18T01:55:48.625Z,3.67
2019-03-18T01:58:16.728Z,3.70
2019-03-18T02:00:45.093Z,4.23
2019-03-18T02:03:13.142Z,4.83
2019-03-18T02:05:41.305Z,5.43
2019-03-18T02:08:09.347Z,5.47
2019-03-18T02:10:37.523Z,5.07
2019-03-18T02:13:05.647Z,6.13
2019-03-18T02:15:33.870Z,6.27
2019-03-18T02:18:02.043Z,5.63
2019-03-18T02:20:30.196Z,5.97
2019-03-18T02:22:58.306Z,5.73
2019-03-18T02:25:26.394Z,5.90
2019-03-18T02:27:55.554Z,5.10
2019-03-18T02:30:23.714Z,5.93
2019-03-18T02:32:51.733Z,5.53
2019-03-18T02:35:20.189Z,5.90
2019-03-18T02:37:48.381Z,6.07
2019-03-18T02:40:16.427Z,6.43
2019-03-18T02:42:45.607Z,5.73
2019-03-18T02:45:13.676Z,5.70
2019-03-18T02:47:41.841Z,5.30
2019-03-18T02:50:10.528Z,6.33
2019-03-18T02:52:38.805Z,4.90
2019-03-18T02:55:07.127Z,5.17
2019-03-18T02:57:35.220Z,4.63
2019-03-18T03:00:06.798Z,4.47
2019-03-18T03:02:36.010Z,4.10
2019-03-18T03:05:05.112Z,3.73
2019-03-18T03:07:33.315Z,3.67
2019-03-18T03:10:01.462Z,4.10
2019-03-18T03:12:29.667Z,3.53
2019-03-18T03:14:57.946Z,3.40
2019-03-18T03:17:26.200Z,2.80
2019-03-18T03:19:54.377Z,3.03
2019-03-18T03:22:22.373Z,3.23
2019-03-18T03:24:50.524Z,3.30
2019-03-18T03:27:18.713Z,3.03
2019-03-18T03:29:46.774Z,2.93
2019-03-18T03:32:14.849Z,3.10
2019-03-18T03:34:42.934Z,3.70
2019-03-18T03:37:10.998Z,2.83
2019-03-18T03:39:39.190Z,3.30
2019-03-18T03:42:07.524Z,2.80
2019-03-18T03:44:36.451Z,2.80
2019-03-18T03:47:04.575Z,3.10
2019-03-18T03:49:32.740Z,3.23
2019-03-18T03:52:00.812Z,3.00
2019-03-18T03:54:28.950Z,2.93
2019-03-18T03:56:57.216Z,3.47
2019-03-18T03:59:25.710Z,3.23
2019-03-18T04:01:53.802Z,3.43
2019-03-18T04:04:22.020Z,3.47
2019-03-18T04:06:52.321Z,3.20
2019-03-18T04:09:20.330Z,3.30
2019-03-18T04:11:48.490Z,3.03
2019-03-18T04:14:16.555Z,3.00
2019-03-18T04:17:00.555Z,3.20
2019-03-18T04:19:14.820Z,2.73
2019-03-18T04:21:44.687Z,2.93
2019-03-18T04:24:12.746Z,2.93
2019-03-18T04:26:40.812Z,3.23
2019-03-18T04:29:09.054Z,2.70
2019-03-18T04:31:39.132Z,3.00
2019-03-18T04:34:07.297Z,3.07
2019-03-18T04:36:36.875Z,3.20
2019-03-18T04:39:06.845Z,3.00
2019-03-18T04:41:34.907Z,3.53
2019-03-18T04:44:02.972Z,2.73
2019-03-18T04:46:33.455Z,3.63
2019-03-18T04:49:01.621Z,3.20
2019-03-18T04:51:29.710Z,2.97
2019-03-18T04:53:57.833Z,3.47
2019-03-18T04:56:26.003Z,4.20
2019-03-18T04:58:54.126Z,4.00
2019-03-18T05:01:22.294Z,3.20
2019-03-18T05:03:51.486Z,3.63
2019-03-18T05:06:19.594Z,3.43
2019-03-18T05:08:47.858Z,3.97
2019-03-18T05:11:15.933Z,3.00
2019-03-18T05:13:44.133Z,3.27
2019-03-18T05:16:12.256Z,3.47
2019-03-18T05:18:40.324Z,3.27
2019-03-18T05:21:08.404Z,3.70
2019-03-18T05:23:36.478Z,3.10
2019-03-18T05:26:06.444Z,3.73
2019-03-18T05:28:34.566Z,3.73
2019-03-18T05:31:03.619Z,3.33
2019-03-18T05:33:32.005Z,3.60
2019-03-18T05:36:00.014Z,4.43
2019-03-18T05:38:29.334Z,4.13
2019-03-18T05:40:57.437Z,4.90
2019-03-18T05:43:25.676Z,5.00
2019-03-18T05:45:53.855Z,4.80
2019-03-18T05:48:23.067Z,4.43
2019-03-18T05:50:51.219Z,4.93
2019-03-18T05:53:19.423Z,4.03
2019-03-18T05:55:47.594Z,4.63
2019-03-18T05:58:15.733Z,5.03
2019-03-18T06:00:43.815Z,4.47
2019-03-18T06:03:11.912Z,4.77
2019-03-18T06:05:40.065Z,4.87
2019-03-18T06:08:08.126Z,5.13
2019-03-18T06:10:36.145Z,5.17
2019-03-18T06:13:04.411Z,4.30
2019-03-18T06:15:32.544Z,4.97
2019-03-18T06:18:01.728Z,4.63
2019-03-18T06:20:29.771Z,5.07
2019-03-18T06:22:57.933Z,4.83
2019-03-18T06:25:26.076Z,4.10
2019-03-18T06:27:54.163Z,5.47
2019-03-18T06:30:22.279Z,5.77
2019-03-18T06:32:50.439Z,5.50
2019-03-18T06:35:20.453Z,5.13
2019-03-18T06:37:48.757Z,5.50
2019-03-18T06:40:16.899Z,4.57
2019-03-18T06:42:45.073Z,4.90
2019-03-18T06:45:13.182Z,4.33
2019-03-18T06:47:41.308Z,5.50
2019-03-18T06:50:09.546Z,5.03
2019-03-18T06:52:37.640Z,5.57
2019-03-18T06:55:06.060Z,5.67
2019-03-18T06:57:34.265Z,5.33
2019-03-18T07:00:02.285Z,5.83
2019-03-18T07:02:32.624Z,4.67
2019-03-18T07:05:00.767Z,4.97
2019-03-18T07:07:28.882Z,5.00
2019-03-18T07:09:57.166Z,6.33
2019-03-18T07:12:25.451Z,5.73
2019-03-18T07:14:53.666Z,5.37
2019-03-18T07:17:24.211Z,6.03
2019-03-18T07:19:52.350Z,5.13
2019-03-18T07:22:20.498Z,6.73
2019-03-18T07:24:48.613Z,6.70
2019-03-18T07:27:17.258Z,5.07
2019-03-18T07:29:45.496Z,5.87
2019-03-18T07:32:13.649Z,5.43
2019-03-18T07:34:41.911Z,6.37
2019-03-18T07:37:09.951Z,5.10
2019-03-18T07:39:37.995Z,6.60
2019-03-18T07:42:06.252Z,5.80
2019-03-18T07:44:34.347Z,5.77
2019-03-18T07:47:02.468Z,6.40
2019-03-18T07:49:30.549Z,7.70
2019-03-18T07:51:58.621Z,6.17
2019-03-18T07:54:32.774Z,6.07
2019-03-18T07:56:57.049Z,5.83
2019-03-18T07:59:25.194Z,5.87
2019-03-18T08:01:53.260Z,5.87
2019-03-18T08:04:21.374Z,6.20
2019-03-18T08:06:49.552Z,6.37
2019-03-18T08:09:17.725Z,5.27
2019-03-18T08:11:45.875Z,6.00
2019-03-18T08:14:15.984Z,5.80
2019-03-18T08:16:44.400Z,5.93
2019-03-18T08:19:13.676Z,5.30
2019-03-18T08:21:41.801Z,5.20
2019-03-18T08:24:10.115Z,6.53
2019-03-18T08:26:38.248Z,5.30
2019-03-18T08:29:06.365Z,4.73
2019-03-18T08:31:34.472Z,5.03
2019-03-18T08:34:02.991Z,5.50
2019-03-18T08:36:31.242Z,5.03
2019-03-18T08:38:59.321Z,5.10
2019-03-18T08:41:27.577Z,5.27
2019-03-18T08:43:55.638Z,4.50
2019-03-18T08:46:23.683Z,5.03
2019-03-18T08:48:55.941Z,4.90
2019-03-18T08:51:21.971Z,4.37
2019-03-18T08:53:50.228Z,4.33
2019-03-18T08:56:18.375Z,3.97
2019-03-18T08:58:46.496Z,4.37
2019-03-18T09:01:15.658Z,4.40
2019-03-18T09:03:44.496Z,4.87
2019-03-18T09:06:12.727Z,3.90
2019-03-18T09:08:40.960Z,4.37
2019-03-18T09:11:09.489Z,4.47
2019-03-18T09:13:39.473Z,4.23
2019-03-18T09:16:07.620Z,3.97
2019-03-18T09:18:35.670Z,3.83
2019-03-18T09:21:04.926Z,4.37
2019-03-18T09:23:33.325Z,4.27
2019-03-18T09:26:01.493Z,4.07
2019-03-18T09:28:29.587Z,3.40
2019-03-18T09:30:57.823Z,4.10
2019-03-18T09:33:25.939Z,3.50
2019-03-18T09:35:54.147Z,3.07
2019-03-18T09:38:23.493Z,3.50
2019-03-18T09:40:54.551Z,3.17
2019-03-18T09:43:23.547Z,2.60
2019-03-18T09:45:54.494Z,2.17
2019-03-18T09:48:22.341Z,2.90
2019-03-18T09:50:50.380Z,2.97
2019-03-18T09:53:18.585Z,2.77
2019-03-18T09:55:46.733Z,3.37
2019-03-18T09:58:15.562Z,4.10
2019-03-18T10:00:43.663Z,3.77
2019-03-18T10:03:11.920Z,4.73
2019-03-18T10:05:40.092Z,5.03
2019-03-18T10:08:10.195Z,4.37
2019-03-18T10:10:38.368Z,4.97
2019-03-18T10:13:06.768Z,4.90
2019-03-18T10:15:35.009Z,5.57
2019-03-18T10:18:03.208Z,5.47
2019-03-18T10:20:31.332Z,5.63
2019-03-18T10:23:02.870Z,4.90
2019-03-18T10:25:29.748Z,5.60
2019-03-18T10:27:57.948Z,6.30
2019-03-18T10:30:26.209Z,5.00
2019-03-18T10:32:57.116Z,5.30
2019-03-18T10:35:25.350Z,5.53
2019-03-18T10:37:53.448Z,5.87
2019-03-18T10:40:21.663Z,5.40
2019-03-18T10:42:49.922Z,6.00
2019-03-18T10:45:20.637Z,4.60
2019-03-18T10:47:49.001Z,4.90
2019-03-18T10:50:17.432Z,4.17
2019-03-18T10:52:45.885Z,3.47
2019-03-18T10:55:14.298Z,2.93
2019-03-18T10:57:42.775Z,3.37
2019-03-18T11:00:13.262Z,4.50
2019-03-18T11:02:41.316Z,4.23
2019-03-18T11:05:09.887Z,4.80
2019-03-18T11:07:38.142Z,4.77
2019-03-18T11:10:07.477Z,4.70
2019-03-18T11:12:35.682Z,4.97
2019-03-18T11:15:04.333Z,5.80
2019-03-18T11:17:32.663Z,5.23
2019-03-18T11:20:00.784Z,5.40
2019-03-18T11:22:30.132Z,5.53
2019-03-18T11:24:58.351Z,5.23
2019-03-18T11:27:27.776Z,6.30
2019-03-18T11:29:55.949Z,6.50
2019-03-18T11:32:24.007Z,2.53
2019-03-18T11:34:52.296Z,1.73
2019-03-18T11:37:20.801Z,2.10
2019-03-18T11:39:48.973Z,2.30
2019-03-18T11:42:17.010Z,1.80
2019-03-18T11:44:45.187Z,2.80
2019-03-18T11:47:14.348Z,2.30
2019-03-18T11:49:42.627Z,2.43
2019-03-18T11:52:10.881Z,1.80
2019-03-18T11:54:39.072Z,2.00
2019-03-18T11:57:08.656Z,2.57
2019-03-18T11:59:36.834Z,2.53
2019-03-18T12:02:05.019Z,3.27
2019-03-18T12:04:33.194Z,3.83
2019-03-18T12:07:01.321Z,4.23
2019-03-18T12:09:29.469Z,4.70
2019-03-18T12:11:57.538Z,4.27
2019-03-18T12:14:25.633Z,5.00
2019-03-18T12:16:53.728Z,5.37
2019-03-18T12:19:23.292Z,5.23
2019-03-18T12:21:51.577Z,5.33
2019-03-18T12:24:19.815Z,5.40
2019-03-18T12:26:49.423Z,5.00
2019-03-18T12:29:17.922Z,4.90
2019-03-18T12:31:46.429Z,5.40
2019-03-18T12:34:14.546Z,4.60
2019-03-18T12:36:43.181Z,4.77
2019-03-18T12:39:13.149Z,6.07
2019-03-18T12:41:41.732Z,4.47
2019-03-18T12:44:12.720Z,4.23
2019-03-18T12:46:41.119Z,3.47
2019-03-18T12:49:09.483Z,4.97
2019-03-18T12:51:37.876Z,4.03
2019-03-18T12:54:06.189Z,3.77
2019-03-18T12:56:34.369Z,3.83
2019-03-18T12:59:02.837Z,3.97
2019-03-18T13:01:30.923Z,4.83
2019-03-18T13:04:00.112Z,4.70
2019-03-18T13:06:28.337Z,4.87
2019-03-18T13:08:56.466Z,4.93
2019-03-18T13:11:24.586Z,4.87
2019-03-18T13:13:53.848Z,4.63
2019-03-18T13:16:22.148Z,5.20
2019-03-18T13:18:50.269Z,5.30
2019-03-18T13:21:18.429Z,4.87
2019-03-18T13:23:46.520Z,5.40
2019-03-18T13:26:16.309Z,5.73
2019-03-18T13:28:44.415Z,5.10
2019-03-18T13:31:12.537Z,5.00
2019-03-18T13:33:41.744Z,5.47
2019-03-18T13:36:09.964Z,5.47
2019-03-18T13:38:38.162Z,4.47
2019-03-18T13:41:06.281Z,4.97
2019-03-18T13:43:35.489Z,5.10
2019-03-18T13:46:03.723Z,4.67
2019-03-18T13:48:31.861Z,4.87
2019-03-18T13:51:00.141Z,4.47
2019-03-18T13:53:28.230Z,4.67
2019-03-18T13:55:56.402Z,4.70
2019-03-18T13:58:24.631Z,5.13
2019-03-18T14:00:52.652Z,5.00
2019-03-18T14:03:20.803Z,6.60
2019-03-18T14:05:48.885Z,4.70
2019-03-18T14:08:17.052Z,4.80
2019-03-18T14:10:45.231Z,4.93
2019-03-18T14:13:13.456Z,4.90
2019-03-18T14:15:41.600Z,4.80
2019-03-18T14:18:09.843Z,4.67
2019-03-18T14:20:38.004Z,4.17
2019-03-18T14:23:06.248Z,4.10
2019-03-18T14:25:34.352Z,4.30
2019-03-18T14:28:02.779Z,3.43
2019-03-18T14:30:31.014Z,4.13
2019-03-18T14:32:59.350Z,4.40
2019-03-18T14:35:27.619Z,4.70
2019-03-18T14:37:55.737Z,4.43
2019-03-18T14:40:23.806Z,4.07
2019-03-18T14:42:53.084Z,4.30
2019-03-18T14:45:21.520Z,5.03
2019-03-18T14:47:49.969Z,5.63
2019-03-18T14:50:18.262Z,5.63
2019-03-18T14:52:46.435Z,5.20
2019-03-18T14:55:14.634Z,5.23
2019-03-18T14:57:43.054Z,4.90
2019-03-18T15:00:18.722Z,5.87
2019-03-18T15:02:46.831Z,5.20
2019-03-18T15:05:15.181Z,4.17
2019-03-18T15:07:43.268Z,5.37
2019-03-18T15:10:11.784Z,5.87
2019-03-18T15:12:40.141Z,4.70
2019-03-18T15:15:12.656Z,5.20
2019-03-18T15:17:41.884Z,4.60
2019-03-18T15:20:12.366Z,4.27
2019-03-18T15:22:40.590Z,4.17
2019-03-18T15:25:13.240Z,3.67
2019-03-18T15:27:43.548Z,4.27
2019-03-18T15:30:14.569Z,4.67
2019-03-18T15:32:42.851Z,4.33
2019-03-18T15:35:11.275Z,4.97
2019-03-18T15:37:39.517Z,4.80
2019-03-18T15:40:08.364Z,4.57
2019-03-18T15:42:36.825Z,5.47
2019-03-18T15:45:05.956Z,4.70
2019-03-18T15:47:34.435Z,5.53
2019-03-18T15:50:02.658Z,4.90
2019-03-18T15:52:30.758Z,5.67
2019-03-18T15:54:58.916Z,5.10
2019-03-18T15:57:29.857Z,4.93
2019-03-18T16:00:01.442Z,4.87
2019-03-18T16:02:29.613Z,5.73
2019-03-18T16:04:58.608Z,5.13
2019-03-18T16:07:26.809Z,5.27
2019-03-18T16:09:54.846Z,5.70
2019-03-18T16:12:23.488Z,6.17
2019-03-18T16:14:51.709Z,5.00
2019-03-18T16:17:19.848Z,4.77
2019-03-18T16:19:47.932Z,6.33
2019-03-18T16:22:23.372Z,5.10
2019-03-18T16:24:46.254Z,4.80
2019-03-18T16:27:14.435Z,5.83
2019-03-18T16:29:42.559Z,6.00
2019-03-18T16:32:11.820Z,5.27
2019-03-18T16:34:40.156Z,6.13
2019-03-18T16:37:09.730Z,5.63
2019-03-18T16:39:37.825Z,5.37
2019-03-18T16:42:06.096Z,5.53
2019-03-18T16:44:34.233Z,5.83
2019-03-18T16:47:02.662Z,7.00
2019-03-18T16:49:30.915Z,5.40
2019-03-18T16:51:58.985Z,6.33
2019-03-18T16:54:27.208Z,4.93
2019-03-18T16:56:55.493Z,5.07
2019-03-18T16:59:23.710Z,5.00
2019-03-18T17:01:52.145Z,5.87
2019-03-18T17:04:20.478Z,5.47
2019-03-18T17:06:51.024Z,5.33
2019-03-18T17:09:19.205Z,5.13
2019-03-18T17:11:47.488Z,4.53
2019-03-18T17:14:15.707Z,4.80
2019-03-18T17:16:44.158Z,5.17
2019-03-18T17:19:14.569Z,4.87
2019-03-18T17:21:42.666Z,4.80
2019-03-18T17:24:10.819Z,4.63
2019-03-18T17:26:39.023Z,5.03
2019-03-18T17:29:07.132Z,5.23
2019-03-18T17:31:35.195Z,4.60
2019-03-18T17:34:03.313Z,5.07
2019-03-18T17:36:31.599Z,4.40
2019-03-18T17:38:59.967Z,5.13
2019-03-18T17:41:29.235Z,4.50
2019-03-18T17:43:57.390Z,5.13
2019-03-18T17:46:25.564Z,5.00
2019-03-18T17:48:53.915Z,5.60
2019-03-18T17:51:22.191Z,5.60
2019-03-18T17:53:50.717Z,4.73
2019-03-18T17:56:29.781Z,5.03
2019-03-18T17:58:49.097Z,4.77
2019-03-18T18:01:17.559Z,5.77
2019-03-18T18:03:49.039Z,5.37
2019-03-18T18:06:17.227Z,5.60
2019-03-18T18:08:45.357Z,5.13
2019-03-18T18:11:16.540Z,5.90
2019-03-18T18:13:44.733Z,5.37
2019-03-18T18:16:16.269Z,4.73
2019-03-18T18:18:44.482Z,5.07
2019-03-18T18:21:13.105Z,4.93
2019-03-18T18:23:42.513Z,6.83
2019-03-18T18:26:10.602Z,6.23
2019-03-18T18:28:39.205Z,5.57
2019-03-18T18:31:07.233Z,5.77
2019-03-18T18:33:35.330Z,5.53
2019-03-18T18:36:03.497Z,6.13
2019-03-18T18:38:31.744Z,6.20
2019-03-18T18:40:59.806Z,5.60
2019-03-18T18:43:28.142Z,5.50
2019-03-18T18:45:56.609Z,4.37
2019-03-18T18:48:24.750Z,3.50
2019-03-18T18:50:52.978Z,3.63
2019-03-18T18:53:26.101Z,3.20
2019-03-18T18:55:51.905Z,3.33
2019-03-18T18:58:21.897Z,3.60
2019-03-18T19:00:53.105Z,3.43
2019-03-18T19:03:21.243Z,4.00
2019-03-18T19:05:50.351Z,3.73
2019-03-18T19:08:18.489Z,3.10
2019-03-18T19:10:46.558Z,3.97
2019-03-18T19:13:14.685Z,4.53
2019-03-18T19:15:42.831Z,4.20
2019-03-18T19:18:11.003Z,4.23
2019-03-18T19:20:39.220Z,5.00
2019-03-18T19:23:07.536Z,4.17
2019-03-18T19:25:36.560Z,5.87
2019-03-18T19:28:05.637Z,4.03
2019-03-18T19:30:33.708Z,4.07
2019-03-18T19:33:01.869Z,4.87
2019-03-18T19:35:30.008Z,3.93
2019-03-18T19:37:58.086Z,4.20
2019-03-18T19:40:26.187Z,4.37
2019-03-18T19:42:54.582Z,3.83
2019-03-18T19:45:23.240Z,4.00
2019-03-18T19:47:53.153Z,3.97
2019-03-18T19:50:22.802Z,4.70
2019-03-18T19:52:51.431Z,4.40
2019-03-18T19:55:19.663Z,4.00
2019-03-18T19:57:47.818Z,4.70
2019-03-18T20:00:18.911Z,4.30
2019-03-18T20:02:47.142Z,4.33
2019-03-18T20:05:18.685Z,4.07
2019-03-18T20:07:45.593Z,4.40
2019-03-18T20:10:14.287Z,4.23
2019-03-18T20:12:42.636Z,4.13
2019-03-18T20:15:12.131Z,5.13
2019-03-18T20:17:40.335Z,4.77
2019-03-18T20:20:10.568Z,3.77
2019-03-18T20:22:41.024Z,4.90
2019-03-18T20:25:09.226Z,5.10
2019-03-18T20:27:37.621Z,4.87
2019-03-18T20:30:10.886Z,5.13
2019-03-18T20:32:39.105Z,5.30
2019-03-18T20:35:09.025Z,4.10
2019-03-18T20:37:38.628Z,4.60
2019-03-18T20:40:09.610Z,4.67
2019-03-18T20:42:37.928Z,4.47
2019-03-18T20:45:10.100Z,4.80
2019-03-18T20:47:40.237Z,4.57
2019-03-18T20:50:10.774Z,5.03
2019-03-18T20:52:39.305Z,4.13
2019-03-18T20:55:08.467Z,3.80
2019-03-18T20:57:36.916Z,4.40
2019-03-18T21:00:07.373Z,4.33
2019-03-18T21:02:35.642Z,4.63
2019-03-18T21:05:05.190Z,4.20
2019-03-18T21:07:33.680Z,4.10
2019-03-18T21:10:02.002Z,4.87
2019-03-18T21:12:30.496Z,4.37
2019-03-18T21:14:58.557Z,4.23
2019-03-18T21:17:27.729Z,4.90
2019-03-18T21:19:55.897Z,4.03
2019-03-18T21:22:26.704Z,5.40
2019-03-18T21:24:54.952Z,4.87
2019-03-18T21:27:24.093Z,4.00
2019-03-18T21:29:52.618Z,4.00
2019-03-18T21:32:20.860Z,4.80
2019-03-18T21:34:51.282Z,4.10
2019-03-18T21:37:19.422Z,5.27
2019-03-18T21:39:47.783Z,4.83
2019-03-18T21:42:16.132Z,4.17
2019-03-18T21:44:44.288Z,4.40
2019-03-18T21:47:12.357Z,3.87
2019-03-18T21:49:40.450Z,4.33
2019-03-18T21:52:08.760Z,4.33
2019-03-18T21:54:37.316Z,4.37
2019-03-18T21:57:05.862Z,4.63
2019-03-18T21:59:34.134Z,4.33
2019-03-18T22:02:02.317Z,4.37
2019-03-18T22:04:30.838Z,4.57
2019-03-18T22:06:59.056Z,4.53
2019-03-18T22:09:27.877Z,4.77
2019-03-18T22:11:57.775Z,4.80
2019-03-18T22:14:25.865Z,5.00
2019-03-18T22:16:54.020Z,4.10
2019-03-18T22:19:22.308Z,4.23
2019-03-18T22:21:50.518Z,4.70
2019-03-18T22:24:18.665Z,5.40
2019-03-18T22:26:47.612Z,4.50
2019-03-18T22:29:15.899Z,4.83
2019-03-18T22:31:46.075Z,4.77
2019-03-18T22:34:14.600Z,4.57
2019-03-18T22:36:42.812Z,4.87
2019-03-18T22:39:11.503Z,3.83
2019-03-18T22:41:39.623Z,3.80
2019-03-18T22:44:08.013Z,3.73
2019-03-18T22:46:37.141Z,4.73
2019-03-18T22:49:05.503Z,4.20
2019-03-18T22:51:33.803Z,4.17
2019-03-18T22:54:02.902Z,4.53
2019-03-18T22:56:31.083Z,4.57
2019-03-18T22:59:00.581Z,4.33
2019-03-18T23:01:29.137Z,4.77
2019-03-18T23:03:57.434Z,4.77
2019-03-18T23:06:26.069Z,4.20
2019-03-18T23:08:54.253Z,4.87
2019-03-18T23:11:22.316Z,4.43
2019-03-18T23:13:51.408Z,5.40
2019-03-18T23:16:19.697Z,4.60
2019-03-18T23:18:48.111Z,5.20
2019-03-18T23:21:16.346Z,5.47
2019-03-18T23:23:44.478Z,4.80
2019-03-18T23:26:12.642Z,4.43
2019-03-18T23:28:42.595Z,4.80
2019-03-18T23:31:10.847Z,4.50
2019-03-18T23:33:39.068Z,4.67
2019-03-18T23:36:07.198Z,4.23
2019-03-18T23:38:35.371Z,5.33
2019-03-18T23:41:06.326Z,5.10
2019-03-18T23:43:36.431Z,4.47
2019-03-18T23:46:05.476Z,4.80
2019-03-18T23:48:33.572Z,4.40
2019-03-18T23:51:01.810Z,4.43
2019-03-18T23:53:29.972Z,4.57
2019-03-18T23:55:58.171Z,3.97
2019-03-18T23:58:27.188Z,4.17
